Time,TemperatureF,DewpointF,PressureIn,WindDirection,WindDirectionDegrees,WindSpeedMPH,WindSpeedGustMPH,Humidity,HourlyPrecipIn,Conditions,Clouds,dailyrainin,SoftwareType,DateUTC
2013-05-30 00:06:00,70.2,69.6,29.91,NNE,22,0.0,-999.0,98,-99.99,,,0.00,Acu-Link.com,2013-05-30 10:06:00,
2013-05-30 00:21:00,70.0,69.4,29.90,NNE,22,0.0,-999.0,98,-99.99,,,0.00,Acu-Link.com,2013-05-30 10:21:00,
2013-05-30 00:37:00,69.8,69.2,29.92,NE,45,0.0,-999.0,98,-99.99,,,0.00,Acu-Link.com,2013-05-30 10:37:00,
2013-05-30 00:52:00,69.6,69.0,29.90,NNE,22,0.0,-999.0,98,-99.99,,,0.00,Acu-Link.com,2013-05-30 10:52:00,
2013-05-30 01:07:00,69.4,68.8,29.89,NNE,22,0.0,-999.0,98,-99.99,,,0.00,Acu-Link.com,2013-05-30 11:07:00,
2013-05-30 01:22:00,69.3,68.7,29.89,NNE,22,0.0,-999.0,98,-99.99,,,0.00,Acu-Link.com,2013-05-30 11:22:00,
2013-05-30 01:38:00,69.3,68.7,29.90,NNE,22,0.0,-999.0,98,-99.99,,,0.00,Acu-Link.com,2013-05-30 11:38:00,
2013-05-30 01:53:00,69.3,68.7,29.88,NNE,22,0.0,-999.0,98,-99.99,,,0.00,Acu-Link.com,2013-05-30 11:53:00,
2013-05-30 02:08:00,69.3,68.7,29.87,NNE,22,0.0,-999.0,98,-99.99,,,0.00,Acu-Link.com,2013-05-30 12:08:00,
2013-05-30 02:24:00,69.6,69.0,29.87,NNE,22,0.0,-999.0,98,-99.99,,,0.00,Acu-Link.com,2013-05-30 12:24:00,
2013-05-30 02:39:00,69.8,69.2,29.87,NNE,22,0.0,-999.0,98,-99.99,,,0.00,Acu-Link.com,2013-05-30 12:39:00,
2013-05-30 02:54:00,69.8,69.2,29.85,NNE,22,0.0,-999.0,98,-99.99,,,0.00,Acu-Link.com,2013-05-30 12:54:00,
2013-05-30 03:10:00,69.8,69.2,29.86,NNE,22,0.0,-999.0,98,-99.99,,,0.00,Acu-Link.com,2013-05-30 13:10:00,
2013-05-30 03:25:00,69.6,69.0,29.85,NNE,22,0.0,-999.0,98,-99.99,,,0.00,Acu-Link.com,2013-05-30 13:25:00,
2013-05-30 03:40:00,69.4,68.8,29.87,NNE,22,0.0,-999.0,98,-99.99,,,0.00,Acu-Link.com,2013-05-30 13:40:00,
2013-05-30 03:55:00,69.4,68.8,29.87,NNE,22,0.0,-999.0,98,-99.99,,,0.00,Acu-Link.com,2013-05-30 13:55:00,
2013-05-30 04:10:00,69.3,68.7,29.85,NNE,22,0.0,-999.0,98,-99.99,,,0.00,Acu-Link.com,2013-05-30 14:10:00,
2013-05-30 04:26:00,69.3,68.7,29.86,NNE,22,0.0,-999.0,98,-99.99,,,0.00,Acu-Link.com,2013-05-30 14:26:00,
2013-05-30 04:41:00,69.1,68.5,29.85,NNE,22,0.0,-999.0,98,-99.99,,,0.00,Acu-Link.com,2013-05-30 14:41:00,
2013-05-30 04:56:00,69.1,68.5,29.86,East,90,0.0,-999.0,98,-99.99,,,0.00,Acu-Link.com,2013-05-30 14:56:00,
2013-05-30 05:11:00,68.9,68.3,29.86,NNE,22,1.1,-999.0,98,-99.99,,,0.00,Acu-Link.com,2013-05-30 15:11:00,
2013-05-30 05:27:00,68.9,68.3,29.87,NNE,22,0.0,-999.0,98,-99.99,,,0.00,Acu-Link.com,2013-05-30 15:27:00,
2013-05-30 05:42:00,68.7,68.1,29.88,NNE,22,0.0,-999.0,98,-99.99,,,0.00,Acu-Link.com,2013-05-30 15:42:00,
2013-05-30 05:57:00,68.9,68.3,29.87,NNE,22,0.0,-999.0,98,-99.99,,,0.00,Acu-Link.com,2013-05-30 15:57:00,
2013-05-30 06:13:00,68.9,68.3,29.87,NNE,22,0.0,-999.0,98,-99.99,,,0.00,Acu-Link.com,2013-05-30 16:13:00,
2013-05-30 06:28:00,69.3,68.7,29.87,NNE,22,0.0,-999.0,98,-99.99,,,0.00,Acu-Link.com,2013-05-30 16:28:00,
2013-05-30 06:43:00,70.0,69.4,29.89,NNE,22,0.0,-999.0,98,-99.99,,,0.00,Acu-Link.com,2013-05-30 16:43:00,
2013-05-30 06:58:00,70.3,69.7,29.88,NNE,22,0.0,-999.0,98,-99.99,,,0.00,Acu-Link.com,2013-05-30 16:58:00,
2013-05-30 07:14:00,70.9,70.3,29.89,NNE,22,0.0,-999.0,98,-99.99,,,0.00,Acu-Link.com,2013-05-30 17:14:00,
2013-05-30 07:29:00,71.2,70.6,29.87,NNE,22,0.0,-999.0,98,-99.99,,,0.00,Acu-Link.com,2013-05-30 17:29:00,
2013-05-30 07:44:00,71.6,71.0,29.87,NNE,22,0.0,-999.0,98,-99.99,,,0.00,Acu-Link.com,2013-05-30 17:44:00,
2013-05-30 08:00:00,72.5,71.9,29.88,NNE,22,0.0,-999.0,98,-99.99,,,0.00,Acu-Link.com,2013-05-30 18:00:00,
2013-05-30 08:15:00,74.7,72.9,29.89,NNE,22,0.0,-999.0,94,-99.99,,,0.00,Acu-Link.com,2013-05-30 18:15:00,
2013-05-30 08:31:00,77.2,71.3,29.88,West,270,2.2,-999.0,82,-99.99,,,0.00,Acu-Link.com,2013-05-30 18:31:00,
2013-05-30 08:46:00,79.0,71.2,29.88,West,270,1.7,-999.0,77,-99.99,,,0.00,Acu-Link.com,2013-05-30 18:46:00,
2013-05-30 09:01:00,81.1,72.0,29.88,SW,225,0.0,-999.0,74,-99.99,,,0.00,Acu-Link.com,2013-05-30 19:01:00,
2013-05-30 09:16:00,81.5,71.6,29.87,NNW,337,0.0,-999.0,72,-99.99,,,0.00,Acu-Link.com,2013-05-30 19:16:00,
2013-05-30 09:34:00,82.0,70.8,29.87,SW,225,2.2,-999.0,69,-99.99,,,0.00,Acu-Link.com,2013-05-30 19:34:00,
2013-05-30 09:56:00,83.3,72.0,29.86,ENE,67,1.7,-999.0,69,-99.99,,,0.00,Acu-Link.com,2013-05-30 19:56:00,
2013-05-30 10:12:00,83.1,71.4,29.87,East,90,2.2,-999.0,68,-99.99,,,0.00,Acu-Link.com,2013-05-30 20:12:00,
2013-05-30 10:27:00,84.4,71.8,29.86,NNW,337,1.7,-999.0,66,-99.99,,,0.00,Acu-Link.com,2013-05-30 20:27:00,
2013-05-30 10:43:00,84.0,71.8,29.86,West,270,1.1,-999.0,67,-99.99,,,0.00,Acu-Link.com,2013-05-30 20:43:00,
2013-05-30 10:58:00,84.9,71.3,29.86,NE,45,1.7,-999.0,64,-99.99,,,0.00,Acu-Link.com,2013-05-30 20:58:00,
2013-05-30 11:13:00,86.7,72.1,29.86,North,0,2.2,-999.0,62,-99.99,,,0.00,Acu-Link.com,2013-05-30 21:13:00,
2013-05-30 11:28:00,86.9,71.8,29.83,WSW,247,1.7,-999.0,61,-99.99,,,0.00,Acu-Link.com,2013-05-30 21:28:00,
2013-05-30 11:43:00,87.4,72.3,29.83,North,0,2.2,-999.0,61,-99.99,,,0.00,Acu-Link.com,2013-05-30 21:43:00,
2013-05-30 11:59:00,88.3,71.6,29.84,West,270,2.2,-999.0,58,-99.99,,,0.00,Acu-Link.com,2013-05-30 21:59:00,
2013-05-30 12:14:00,88.3,72.1,29.82,NW,315,0.0,-999.0,59,-99.99,,,0.00,Acu-Link.com,2013-05-30 22:14:00,
2013-05-30 13:18:00,88.3,71.6,29.82,WNW,292,3.2,-999.0,58,-99.99,,,0.00,Acu-Link.com,2013-05-30 23:18:00,
2013-05-30 13:33:00,87.8,71.7,29.83,NE,45,4.7,-999.0,59,-99.99,,,0.00,Acu-Link.com,2013-05-30 23:33:00,
2013-05-30 13:49:00,88.0,71.3,29.79,North,0,1.7,-999.0,58,-99.99,,,0.00,Acu-Link.com,2013-05-30 23:49:00,
2013-05-30 14:04:00,88.5,71.8,29.79,NNE,22,4.2,-999.0,58,-99.99,,,0.00,Acu-Link.com,2013-05-31 00:04:00,
2013-05-30 14:19:00,86.4,70.8,29.79,WNW,292,2.2,-999.0,60,-99.99,,,0.00,Acu-Link.com,2013-05-31 00:19:00,
2013-05-30 14:35:00,86.9,71.3,29.78,ENE,67,1.1,-999.0,60,-99.99,,,0.00,Acu-Link.com,2013-05-31 00:35:00,
2013-05-30 14:50:00,86.2,70.7,29.79,NNE,22,3.2,-999.0,60,-99.99,,,0.00,Acu-Link.com,2013-05-31 00:50:00,
2013-05-30 15:05:00,86.9,71.3,29.80,NNE,22,1.7,-999.0,60,-99.99,,,0.00,Acu-Link.com,2013-05-31 01:05:00,
2013-05-30 15:21:00,87.3,71.2,29.79,WSW,247,2.2,-999.0,59,-99.99,,,0.00,Acu-Link.com,2013-05-31 01:21:00,
2013-05-30 15:36:00,86.2,70.7,29.77,WSW,247,1.7,-999.0,60,-99.99,,,0.00,Acu-Link.com,2013-05-31 01:36:00,
2013-05-30 15:51:00,87.6,71.0,29.77,NNW,337,2.7,-999.0,58,-99.99,,,0.00,Acu-Link.com,2013-05-31 01:51:00,
2013-05-30 16:07:00,88.0,71.3,29.76,ENE,67,1.1,-999.0,58,-99.99,,,0.00,Acu-Link.com,2013-05-31 02:07:00,
2013-05-30 16:22:00,88.0,70.3,29.79,North,0,3.2,-999.0,56,-99.99,,,0.00,Acu-Link.com,2013-05-31 02:22:00,
2013-05-30 16:37:00,88.2,71.5,29.76,NE,45,1.7,-999.0,58,-99.99,,,0.00,Acu-Link.com,2013-05-31 02:37:00,
2013-05-30 16:52:00,86.4,70.8,29.79,WNW,292,2.2,-999.0,60,-99.99,,,0.00,Acu-Link.com,2013-05-31 02:52:00,
2013-05-30 17:08:00,84.4,70.9,29.76,NNE,22,1.7,-999.0,64,-99.99,,,0.00,Acu-Link.com,2013-05-31 03:08:00,
2013-05-30 17:23:00,84.4,70.4,29.80,West,270,1.7,-999.0,63,-99.99,,,0.00,Acu-Link.com,2013-05-31 03:23:00,
2013-05-30 17:38:00,84.2,70.7,29.79,West,270,0.0,-999.0,64,-99.99,,,0.00,Acu-Link.com,2013-05-31 03:38:00,
2013-05-30 17:54:00,84.0,70.5,29.76,NNE,22,1.7,-999.0,64,-99.99,,,0.00,Acu-Link.com,2013-05-31 03:54:00,
2013-05-30 18:10:00,83.3,69.8,29.77,WSW,247,0.0,-999.0,64,-99.99,,,0.00,Acu-Link.com,2013-05-31 04:10:00,
2013-05-30 18:25:00,82.8,69.8,29.78,NW,315,0.0,-999.0,65,-99.99,,,0.00,Acu-Link.com,2013-05-31 04:25:00,
2013-05-30 18:40:00,81.7,69.7,29.80,NE,45,0.0,-999.0,67,-99.99,,,0.00,Acu-Link.com,2013-05-31 04:40:00,
2013-05-30 18:57:00,79.5,69.3,29.80,SSW,202,1.7,-999.0,71,-99.99,,,0.00,Acu-Link.com,2013-05-31 04:57:00,
2013-05-30 19:12:00,78.4,69.4,29.81,North,0,0.0,-999.0,74,-99.99,,,0.00,Acu-Link.com,2013-05-31 05:12:00,
2013-05-30 19:28:00,77.7,69.1,29.81,NNE,22,0.0,-999.0,75,-99.99,,,0.00,Acu-Link.com,2013-05-31 05:28:00,
2013-05-30 19:43:00,77.4,69.2,29.84,NNE,22,0.0,-999.0,76,-99.99,,,0.00,Acu-Link.com,2013-05-31 05:43:00,
2013-05-30 19:59:00,76.6,68.8,29.84,NNE,22,0.0,-999.0,77,-99.99,,,0.00,Acu-Link.com,2013-05-31 05:59:00,
2013-05-30 20:14:00,76.3,68.9,29.85,NNE,22,0.0,-999.0,78,-99.99,,,0.00,Acu-Link.com,2013-05-31 06:14:00,
2013-05-30 20:29:00,75.7,68.3,29.84,NNE,22,1.1,-999.0,78,-99.99,,,0.00,Acu-Link.com,2013-05-31 06:29:00,
2013-05-30 20:45:00,75.0,68.4,29.85,NNE,22,0.0,-999.0,80,-99.99,,,0.00,Acu-Link.com,2013-05-31 06:45:00,
2013-05-30 21:00:00,74.3,67.7,29.85,NE,45,0.0,-999.0,80,-99.99,,,0.00,Acu-Link.com,2013-05-31 07:00:00,
2013-05-30 21:15:00,73.8,67.6,29.85,SW,225,0.0,-999.0,81,-99.99,,,0.00,Acu-Link.com,2013-05-31 07:15:00,
2013-05-30 21:31:00,73.6,67.4,29.87,NNE,22,0.0,-999.0,81,-99.99,,,0.00,Acu-Link.com,2013-05-31 07:31:00,
2013-05-30 21:46:00,73.6,67.4,29.88,NNE,22,1.7,-999.0,81,-99.99,,,0.00,Acu-Link.com,2013-05-31 07:46:00,
2013-05-30 22:01:00,73.6,67.0,29.86,ESE,112,0.0,-999.0,80,-99.99,,,0.00,Acu-Link.com,2013-05-31 08:01:00,
2013-05-30 22:19:00,73.4,66.8,29.86,NNW,337,0.0,-999.0,80,-99.99,,,0.00,Acu-Link.com,2013-05-31 08:19:00,
2013-05-30 22:35:00,73.6,67.0,29.86,NNE,22,0.0,-999.0,80,-99.99,,,0.00,Acu-Link.com,2013-05-31 08:35:00,
2013-05-30 22:50:00,73.6,67.4,29.88,North,0,0.0,-999.0,81,-99.99,,,0.00,Acu-Link.com,2013-05-31 08:50:00,
2013-05-30 23:05:00,74.3,68.1,29.87,NNE,22,0.0,-999.0,81,-99.99,,,0.00,Acu-Link.com,2013-05-31 09:05:00,
2013-05-30 23:20:00,74.3,69.1,29.87,NNE,22,0.0,-999.0,84,-99.99,,,0.00,Acu-Link.com,2013-05-31 09:20:00,
2013-05-30 23:35:00,74.1,68.6,29.86,NNE,22,0.0,-999.0,83,-99.99,,,0.00,Acu-Link.com,2013-05-31 09:35:00,
2013-05-30 23:50:00,73.4,68.6,29.86,NNE,22,0.0,-999.0,85,-99.99,,,0.00,Acu-Link.com,2013-05-31 09:50:00,